Time;durP1;ratioP1;P1;durP2;ratioP2;P2;SDS_P1;SDS_P2;PMS_P1;PMS_P2;Temp;Humidity;BMP_temperature;BMP_pressure;BME280_temperature;BME280_humidity;BME280_pressure;Samples;Min_cycle;Max_cycle;Signal;HPM_P1;HPM_P2
2021/11/20 00:01:00;;;;;;;2.58;1.55;;;22.30;51.10;;;;;;5035735;28;20044;-58
2021/11/20 00:03:26;;;;;;;3.67;1.77;;;22.30;51.10;;;;;;5031581;28;20026;-59
2021/11/20 00:05:54;;;;;;;3.20;1.50;;;22.30;51.20;;;;;;5042039;28;20116;-60
2021/11/20 00:08:23;;;;;;;2.45;1.50;;;22.20;51.10;;;;;;5030179;28;20056;-55
2021/11/20 00:10:56;;;;;;;3.22;1.40;;;22.20;51.10;;;;;;5031828;28;20044;-59
2021/11/20 00:13:23;;;;;;;3.65;1.58;;;22.20;51.10;;;;;;5033310;28;20037;-59
2021/11/20 00:15:54;;;;;;;3.05;1.40;;;22.20;51.10;;;;;;5031354;28;20195;-59
2021/11/20 00:18:22;;;;;;;4.07;1.70;;;22.10;51.10;;;;;;5032539;28;20136;-54
2021/11/20 00:20:55;;;;;;;3.90;1.67;;;22.10;51.10;;;;;;5033154;28;20080;-58
2021/11/20 00:23:29;;;;;;;2.92;1.40;;;22.10;51.10;;;;;;5033810;28;20424;-58
2021/11/20 00:25:57;;;;;;;3.08;1.55;;;22.10;51.20;;;;;;5030397;28;20027;-57
2021/11/20 00:28:41;;;;;;;2.33;1.40;;;22.10;51.20;;;;;;5031654;28;20017;-57
2021/11/20 00:31:15;;;;;;;2.70;1.60;;;22.10;51.20;;;;;;5037122;28;20140;-60
2021/11/20 00:33:41;;;;;;;2.40;1.55;;;22.00;51.20;;;;;;5031733;28;20120;-59
2021/11/20 00:36:09;;;;;;;2.70;1.40;;;22.00;51.20;;;;;;5032149;28;20101;-60
2021/11/20 00:38:35;;;;;;;2.75;1.55;;;22.00;51.20;;;;;;5028438;28;20028;-61
2021/11/20 00:41:08;;;;;;;2.38;1.45;;;22.00;51.30;;;;;;5032664;28;20037;-59
2021/11/20 00:43:35;;;;;;;2.25;1.35;;;21.90;51.20;;;;;;5032014;28;20516;-59
2021/11/20 00:46:00;;;;;;;2.38;1.50;;;21.90;51.30;;;;;;5035957;28;20072;-59
2021/11/20 00:48:27;;;;;;;2.95;1.50;;;21.90;51.40;;;;;;5028352;28;20053;-59
2021/11/20 00:50:57;;;;;;;2.63;1.52;;;21.90;51.40;;;;;;5030337;28;20029;-59
2021/11/20 00:53:23;;;;;;;2.08;1.30;;;21.90;51.40;;;;;;5031422;28;20025;-59
2021/11/20 00:55:49;;;;;;;1.70;1.23;;;21.90;51.40;;;;;;5029481;28;20036;-57
2021/11/20 00:58:15;;;;;;;2.28;1.40;;;21.80;51.40;;;;;;5033877;28;20786;-60
2021/11/20 01:00:48;;;;;;;3.72;1.33;;;21.80;51.40;;;;;;5028712;28;20354;-57
2021/11/20 01:03:14;;;;;;;2.28;1.35;;;21.80;51.40;;;;;;5029468;28;20064;-59
2021/11/20 01:05:40;;;;;;;2.20;1.30;;;21.80;51.50;;;;;;5034812;28;20064;-59
2021/11/20 01:08:07;;;;;;;2.53;1.40;;;21.80;51.50;;;;;;5037731;28;20489;-59
2021/11/20 01:10:40;;;;;;;2.55;1.50;;;21.80;51.50;;;;;;5037132;28;20077;-59
2021/11/20 01:13:07;;;;;;;2.42;1.23;;;21.70;51.40;;;;;;5034596;28;20029;-55
2021/11/20 01:15:40;;;;;;;2.53;1.30;;;21.80;51.50;;;;;;5033800;28;20469;-58
2021/11/20 01:18:07;;;;;;;2.47;1.55;;;21.70;52.00;;;;;;5039957;28;20466;-59
2021/11/20 01:20:34;;;;;;;2.50;1.40;;;21.70;51.50;;;;;;5032726;28;20045;-53
2021/11/20 01:23:00;;;;;;;2.22;1.38;;;21.70;51.50;;;;;;5035885;28;20111;-60
2021/11/20 01:25:26;;;;;;;3.15;1.40;;;21.70;51.50;;;;;;5032782;28;20034;-59
2021/11/20 01:27:53;;;;;;;3.47;1.40;;;21.70;51.60;;;;;;5035717;28;20095;-60
2021/11/20 01:30:19;;;;;;;3.33;1.40;;;21.70;51.50;;;;;;5031134;28;20259;-59
2021/11/20 01:32:46;;;;;;;2.13;1.45;;;21.70;51.60;;;;;;5038328;28;20730;-58
2021/11/20 01:35:12;;;;;;;2.17;1.30;;;21.60;51.60;;;;;;5035214;28;20032;-59
2021/11/20 01:37:39;;;;;;;2.10;1.30;;;21.60;51.60;;;;;;5051534;28;20045;-59
2021/11/20 01:40:11;;;;;;;2.25;1.20;;;21.60;51.60;;;;;;5031801;28;20028;-58
2021/11/20 01:42:37;;;;;;;2.40;1.30;;;21.60;51.60;;;;;;5039527;28;20037;-60
2021/11/20 01:45:12;;;;;;;2.33;1.30;;;21.60;51.60;;;;;;5031769;28;20088;-52
2021/11/20 01:47:54;;;;;;;2.15;1.27;;;21.60;51.60;;;;;;5035053;28;20060;-57
2021/11/20 01:50:33;;;;;;;1.95;1.40;;;21.50;51.60;;;;;;5033558;28;20772;-60
2021/11/20 01:53:05;;;;;;;2.05;1.30;;;21.60;51.70;;;;;;5035367;28;20490;-59
2021/11/20 01:56:02;;;;;;;1.80;1.20;;;21.50;51.60;;;;;;5035609;28;20032;-56
2021/11/20 01:58:41;;;;;;;2.33;1.30;;;21.50;51.70;;;;;;5031554;28;20498;-60
2021/11/20 02:01:19;;;;;;;2.15;1.48;;;21.50;51.70;;;;;;5033506;28;20037;-59
2021/11/20 02:04:01;;;;;;;2.23;1.37;;;21.50;51.70;;;;;;5040481;28;20046;-56
2021/11/20 02:06:30;;;;;;;2.38;1.40;;;21.50;51.70;;;;;;5030469;28;20080;-61
2021/11/20 02:08:56;;;;;;;;;;;21.50;51.70;;;;;;5034252;28;20029;-60
2021/11/20 02:11:31;;;;;;;1.90;1.20;;;21.40;51.70;;;;;;5034330;28;20415;-59
2021/11/20 02:13:57;;;;;;;3.47;1.20;;;21.40;52.30;;;;;;5033071;28;20025;-57
2021/11/20 02:16:28;;;;;;;2.03;1.20;;;21.40;51.70;;;;;;5033390;28;20644;-59
2021/11/20 02:18:58;;;;;;;2.50;1.50;;;21.40;51.80;;;;;;5035788;28;20026;-60
2021/11/20 02:21:43;;;;;;;1.92;1.33;;;21.40;51.80;;;;;;5033593;28;20087;-54
2021/11/20 02:24:08;;;;;;;2.50;1.33;;;21.40;51.80;;;;;;5030911;28;20656;-56
2021/11/20 02:26:34;;;;;;;2.25;1.20;;;21.40;51.80;;;;;;5036081;28;20143;-61
2021/11/20 02:29:07;;;;;;;2.70;1.35;;;21.40;51.80;;;;;;5030167;28;20021;-57
2021/11/20 02:31:42;;;;;;;2.25;1.30;;;21.40;51.80;;;;;;5037752;28;20037;-60
2021/11/20 02:34:08;;;;;;;2.10;1.40;;;21.30;51.80;;;;;;5035931;28;20049;-59
2021/11/20 02:36:36;;;;;;;2.03;1.30;;;21.30;51.80;;;;;;5035555;28;20052;-59
2021/11/20 02:39:08;;;;;;;1.90;1.20;;;21.30;51.80;;;;;;5026757;28;20029;-52
2021/11/20 02:41:36;;;;;;;2.25;1.63;;;21.30;51.90;;;;;;5035286;28;20020;-59
2021/11/20 02:44:04;;;;;;;2.28;1.30;;;21.30;51.80;;;;;;5035059;28;20028;-59
2021/11/20 02:46:34;;;;;;;2.40;1.13;;;21.30;51.90;;;;;;5031832;28;20426;-60
2021/11/20 02:49:00;;;;;;;2.13;1.20;;;21.30;51.90;;;;;;5032369;28;20480;-59
2021/11/20 02:51:29;;;;;;;1.83;1.20;;;21.30;51.90;;;;;;5033756;28;20016;-60
2021/11/20 02:54:02;;;;;;;1.92;1.20;;;21.30;51.90;;;;;;5028573;28;20009;-60
2021/11/20 02:56:32;;;;;;;2.55;1.38;;;21.30;52.00;;;;;;5032524;28;20167;-55
2021/11/20 02:58:58;;;;;;;1.85;1.20;;;21.20;51.90;;;;;;5029707;28;20439;-58
2021/11/20 03:01:30;;;;;;;2.05;1.17;;;21.20;51.90;;;;;;5032864;28;20048;-58
2021/11/20 03:03:56;;;;;;;3.00;1.30;;;21.20;52.00;;;;;;5033975;28;20044;-59
2021/11/20 03:06:22;;;;;;;2.10;1.30;;;21.20;52.10;;;;;;5033527;28;20029;-57
2021/11/20 03:08:48;;;;;;;2.05;1.30;;;21.20;52.00;;;;;;5026312;28;20030;-59
2021/11/20 03:11:15;;;;;;;1.90;1.10;;;21.20;52.00;;;;;;5035028;28;20025;-60
2021/11/20 03:13:43;;;;;;;2.03;1.20;;;21.20;52.00;;;;;;5031390;28;20429;-60
2021/11/20 03:16:09;;;;;;;2.28;1.10;;;21.20;52.00;;;;;;5029902;28;20021;-59
2021/11/20 03:18:35;;;;;;;1.58;1.02;;;21.20;52.00;;;;;;5034987;28;20128;-60
2021/11/20 03:21:02;;;;;;;1.90;1.20;;;21.20;52.00;;;;;;5034848;28;20107;-60
2021/11/20 03:23:34;;;;;;;2.00;1.10;;;21.10;52.00;;;;;;5040948;28;20093;-60
2021/11/20 03:25:59;;;;;;;1.50;1.10;;;21.20;52.10;;;;;;5030362;28;20160;-60
2021/11/20 03:28:25;;;;;;;1.48;1.00;;;21.10;52.00;;;;;;5032815;28;20051;-54
2021/11/20 03:30:51;;;;;;;1.58;1.20;;;21.10;52.10;;;;;;5034304;28;20116;-59
2021/11/20 03:33:18;;;;;;;2.28;1.13;;;21.10;52.10;;;;;;5037037;28;20037;-60
2021/11/20 03:35:44;;;;;;;2.35;1.48;;;21.10;52.10;;;;;;5029582;28;20061;-57
2021/11/20 03:38:10;;;;;;;1.80;1.20;;;21.10;52.10;;;;;;5034742;28;20032;-59
2021/11/20 03:40:37;;;;;;;1.90;1.15;;;21.10;52.10;;;;;;5031810;28;20030;-59
2021/11/20 03:43:03;;;;;;;2.03;1.20;;;21.10;52.10;;;;;;5029821;28;20045;-55
2021/11/20 03:45:31;;;;;;;2.78;1.13;;;21.10;52.20;;;;;;5033886;28;20067;-61
2021/11/20 03:47:57;;;;;;;1.80;1.20;;;21.00;52.10;;;;;;5033392;28;20034;-60
2021/11/20 03:50:23;;;;;;;2.60;1.20;;;21.10;52.20;;;;;;5031173;28;20078;-60
2021/11/20 03:52:49;;;;;;;2.92;1.30;;;21.10;52.20;;;;;;5030194;28;20068;-57
2021/11/20 03:55:18;;;;;;;1.77;1.20;;;21.10;52.20;;;;;;5027927;28;20060;-54
2021/11/20 03:57:45;;;;;;;2.05;1.20;;;21.10;52.20;;;;;;5033083;28;20164;-56
2021/11/20 04:00:15;;;;;;;1.60;1.10;;;21.00;52.20;;;;;;5033247;28;20043;-60
2021/11/20 04:02:42;;;;;;;2.08;1.13;;;21.00;52.20;;;;;;5033918;28;20054;-58
2021/11/20 04:05:08;;;;;;;1.83;1.23;;;21.00;52.20;;;;;;5032430;28;20040;-57
2021/11/20 04:07:34;;;;;;;2.67;1.50;;;21.00;52.20;;;;;;5035596;28;20462;-61
2021/11/20 04:09:59;;;;;;;1.67;1.20;;;21.00;52.20;;;;;;5032197;28;20037;-60
2021/11/20 04:12:25;;;;;;;2.50;1.50;;;21.00;52.30;;;;;;5039030;28;20560;-54
2021/11/20 04:14:51;;;;;;;1.88;1.17;;;21.00;52.30;;;;;;5034408;28;20067;-60
2021/11/20 04:17:16;;;;;;;1.95;1.30;;;21.00;52.30;;;;;;5034410;28;20041;-61
2021/11/20 04:19:42;;;;;;;1.77;1.23;;;21.00;52.30;;;;;;5031692;28;20029;-60
2021/11/20 04:22:08;;;;;;;1.90;1.27;;;21.00;52.40;;;;;;5034187;28;20063;-60
2021/11/20 04:24:34;;;;;;;2.80;1.30;;;21.00;52.30;;;;;;5031715;28;20033;-59
2021/11/20 04:27:00;;;;;;;1.77;1.23;;;20.90;52.30;;;;;;5031946;28;20037;-59
2021/11/20 04:29:25;;;;;;;2.03;1.42;;;21.00;52.40;;;;;;5038160;28;20040;-61
2021/11/20 04:31:51;;;;;;;1.65;1.20;;;20.90;52.30;;;;;;5030749;28;20059;-60
2021/11/20 04:34:17;;;;;;;1.83;1.27;;;20.90;52.40;;;;;;5032870;28;20040;-61
2021/11/20 04:36:44;;;;;;;1.73;1.10;;;20.90;52.40;;;;;;5032895;28;20138;-60
2021/11/20 04:39:12;;;;;;;1.63;1.02;;;21.00;52.50;;;;;;5028791;28;20089;-56
2021/11/20 04:41:37;;;;;;;1.40;1.10;;;20.90;52.50;;;;;;5036060;28;20029;-61
2021/11/20 04:44:03;;;;;;;1.48;1.20;;;20.90;52.40;;;;;;5032126;28;20040;-59
2021/11/20 04:46:29;;;;;;;2.05;1.30;;;20.90;52.40;;;;;;5034716;28;20111;-60
2021/11/20 04:48:55;;;;;;;1.60;1.20;;;20.90;52.50;;;;;;5034411;28;20033;-59
2021/11/20 04:51:22;;;;;;;1.92;1.27;;;20.90;52.50;;;;;;5035362;28;20033;-60
2021/11/20 04:53:48;;;;;;;1.70;1.20;;;20.90;52.50;;;;;;5034444;28;20068;-58
2021/11/20 04:56:17;;;;;;;1.38;1.00;;;20.90;52.70;;;;;;5039659;28;20454;-60
2021/11/20 04:58:44;;;;;;;1.30;0.98;;;20.90;52.50;;;;;;5032655;28;20158;-59
2021/11/20 05:01:10;;;;;;;1.77;1.20;;;20.90;52.60;;;;;;5038726;28;20041;-60
2021/11/20 05:03:37;;;;;;;2.17;1.20;;;20.80;52.50;;;;;;5032560;28;20048;-59
2021/11/20 05:06:03;;;;;;;1.65;1.17;;;20.90;52.60;;;;;;5041569;28;20143;-58
2021/11/20 05:08:28;;;;;;;2.08;1.35;;;20.80;52.50;;;;;;5033468;28;20717;-60
2021/11/20 05:10:55;;;;;;;1.80;1.10;;;20.80;52.60;;;;;;5034043;28;20049;-59
2021/11/20 05:13:24;;;;;;;1.48;1.10;;;20.80;52.60;;;;;;5035719;28;20052;-60
2021/11/20 05:15:52;;;;;;;1.90;1.35;;;20.80;52.60;;;;;;5032408;28;20097;-59
2021/11/20 05:18:18;;;;;;;1.90;1.23;;;20.80;52.60;;;;;;5038935;28;20106;-58
2021/11/20 05:20:45;;;;;;;1.65;1.10;;;20.80;52.60;;;;;;5031721;28;20035;-60
2021/11/20 05:23:11;;;;;;;2.15;1.20;;;20.80;52.60;;;;;;5034947;28;20044;-60
2021/11/20 05:25:38;;;;;;;1.88;1.10;;;20.80;52.70;;;;;;5029414;28;20036;-57
2021/11/20 05:28:04;;;;;;;1.45;1.10;;;20.80;52.60;;;;;;5036197;28;20029;-57
2021/11/20 05:30:36;;;;;;;1.80;1.13;;;20.80;52.70;;;;;;5033407;28;20033;-60
2021/11/20 05:33:09;;;;;;;1.83;1.17;;;20.80;52.70;;;;;;5039343;28;20231;-61
2021/11/20 05:35:35;;;;;;;2.05;1.10;;;20.80;52.70;;;;;;5035402;28;20377;-59
2021/11/20 05:38:01;;;;;;;1.70;1.13;;;20.80;52.70;;;;;;5041350;28;20025;-60
2021/11/20 05:40:27;;;;;;;1.45;1.00;;;20.80;52.70;;;;;;5028461;28;20090;-55
2021/11/20 05:42:56;;;;;;;1.30;0.98;;;20.80;52.70;;;;;;5031752;28;20358;-60
2021/11/20 05:45:25;;;;;;;1.63;1.20;;;20.80;52.80;;;;;;5036629;28;20032;-58
2021/11/20 05:47:51;;;;;;;1.48;0.90;;;20.80;52.80;;;;;;5035130;28;20299;-55
2021/11/20 05:50:19;;;;;;;1.63;1.08;;;20.80;52.80;;;;;;5034356;28;20068;-60
2021/11/20 05:52:46;;;;;;;1.40;1.00;;;20.80;52.80;;;;;;5036152;28;20041;-57
2021/11/20 05:55:13;;;;;;;2.05;1.27;;;20.70;52.70;;;;;;5027601;28;20053;-60
2021/11/20 05:57:39;;;;;;;1.52;1.20;;;20.70;52.80;;;;;;5033043;28;20057;-60
2021/11/20 06:00:13;;;;;;;2.00;1.00;;;20.70;52.80;;;;;;5032820;28;20137;-57
2021/11/20 06:02:38;;;;;;;1.27;1.00;;;20.70;52.90;;;;;;5064034;28;20041;-59
2021/11/20 06:05:05;;;;;;;1.60;1.20;;;20.70;52.90;;;;;;5032898;28;20029;-60
2021/11/20 06:07:31;;;;;;;1.85;1.20;;;20.70;52.80;;;;;;5035413;28;20033;-59
2021/11/20 06:09:56;;;;;;;1.40;0.98;;;20.70;52.80;;;;;;5027873;28;20029;-57
2021/11/20 06:12:23;;;;;;;1.50;1.00;;;20.70;52.90;;;;;;5035507;28;20513;-59
2021/11/20 06:14:48;;;;;;;1.83;1.10;;;20.70;52.90;;;;;;5031854;28;20094;-60
2021/11/20 06:17:14;;;;;;;1.10;1.00;;;20.70;52.90;;;;;;5032881;28;20033;-59
2021/11/20 06:19:40;;;;;;;1.30;1.00;;;20.70;52.90;;;;;;5031621;28;20033;-59
2021/11/20 06:22:06;;;;;;;1.52;0.95;;;20.70;52.90;;;;;;5039547;28;20037;-57
2021/11/20 06:24:31;;;;;;;1.25;1.00;;;20.70;52.90;;;;;;5027670;28;20120;-59
2021/11/20 06:26:57;;;;;;;1.55;1.10;;;20.70;53.00;;;;;;5036905;28;20384;-59
2021/11/20 06:29:24;;;;;;;1.50;1.05;;;20.70;53.00;;;;;;5032012;28;20422;-59
2021/11/20 06:31:50;;;;;;;1.80;1.05;;;20.70;53.00;;;;;;5031440;28;20072;-59
2021/11/20 06:34:16;;;;;;;1.17;1.02;;;20.60;53.40;;;;;;5030596;28;20852;-59
2021/11/20 06:36:42;;;;;;;1.80;1.20;;;20.60;52.90;;;;;;5034563;28;20031;-59
2021/11/20 06:39:08;;;;;;;1.40;1.00;;;20.60;52.90;;;;;;5030521;28;20047;-59
2021/11/20 06:41:34;;;;;;;1.60;1.10;;;20.60;52.90;;;;;;5032364;28;20470;-59
2021/11/20 06:44:00;;;;;;;1.67;1.10;;;20.60;52.90;;;;;;5030268;28;20083;-59
2021/11/20 06:46:25;;;;;;;1.40;1.00;;;20.60;52.90;;;;;;5034611;28;20026;-60
2021/11/20 06:48:51;;;;;;;1.83;1.17;;;20.60;53.00;;;;;;5033495;28;20041;-57
2021/11/20 06:51:18;;;;;;;1.42;1.10;;;20.60;53.00;;;;;;5034411;28;20025;-60
2021/11/20 06:53:46;;;;;;;1.42;1.00;;;20.60;53.00;;;;;;5031330;28;20389;-60
2021/11/20 06:56:25;;;;;;;1.73;1.10;;;20.60;53.00;;;;;;5034625;28;20156;-59
2021/11/20 07:01:17;;;;;;;1.58;1.00;;;20.60;53.00;;;;;;5031740;28;20513;-59
2021/11/20 07:03:56;;;;;;;1.40;1.10;;;20.60;53.00;;;;;;5029972;28;20042;-58
2021/11/20 07:06:26;;;;;;;1.60;1.10;;;20.60;53.00;;;;;;5033134;28;20091;-59
2021/11/20 07:08:53;;;;;;;;;;;20.60;53.00;;;;;;5029076;28;20059;-57
2021/11/20 07:11:19;;;;;;;1.40;1.00;;;20.60;53.00;;;;;;5039138;28;19909;-59
2021/11/20 07:13:45;;;;;;;1.83;1.15;;;20.60;53.00;;;;;;5034409;28;20099;-59
2021/11/20 07:16:12;;;;;;;1.40;1.00;;;20.60;53.00;;;;;;5034303;28;20021;-58
2021/11/20 07:18:39;;;;;;;1.42;1.08;;;20.60;53.00;;;;;;5030081;28;20041;-59
2021/11/20 07:21:05;;;;;;;1.45;1.05;;;20.60;53.00;;;;;;5032659;28;20079;-59
2021/11/20 07:23:31;;;;;;;2.10;1.10;;;20.60;53.00;;;;;;5033106;28;20037;-60
2021/11/20 07:25:57;;;;;;;1.27;1.00;;;20.60;53.00;;;;;;5028075;28;20093;-59
2021/11/20 07:28:23;;;;;;;1.55;1.00;;;20.60;53.00;;;;;;5032356;28;20045;-57
2021/11/20 07:30:49;;;;;;;1.45;1.00;;;20.60;53.00;;;;;;5027716;28;20085;-59
2021/11/20 07:33:15;;;;;;;1.10;1.00;;;20.60;53.00;;;;;;5032267;28;20033;-54
2021/11/20 07:35:50;;;;;;;1.30;0.93;;;20.60;53.00;;;;;;5034030;28;20785;-59
2021/11/20 07:38:22;;;;;;;1.40;1.08;;;20.60;53.00;;;;;;5031331;28;20640;-59
2021/11/20 07:40:48;;;;;;;1.63;1.05;;;20.60;53.10;;;;;;5035118;28;20037;-59
2021/11/20 07:43:14;;;;;;;1.45;1.10;;;20.50;53.00;;;;;;5032189;28;20032;-56
2021/11/20 07:45:40;;;;;;;1.35;0.90;;;20.60;53.10;;;;;;5034444;28;20390;-55
2021/11/20 07:48:28;;;;;;;1.40;1.10;;;20.50;53.00;;;;;;5029677;28;20494;-58
2021/11/20 07:50:56;;;;;;;1.30;1.00;;;20.50;53.00;;;;;;5031314;28;20420;-59
2021/11/20 07:53:24;;;;;;;1.02;0.90;;;20.50;53.00;;;;;;5030984;28;20026;-58
2021/11/20 07:55:50;;;;;;;1.80;1.13;;;20.50;53.10;;;;;;5033517;28;20033;-58
2021/11/20 07:58:17;;;;;;;2.42;1.30;;;20.50;53.00;;;;;;5026662;28;20025;-59
2021/11/20 08:00:44;;;;;;;1.83;1.23;;;20.50;53.00;;;;;;5031151;28;20101;-59
2021/11/20 08:03:11;;;;;;;1.55;1.10;;;20.50;53.00;;;;;;5033241;28;20033;-60
2021/11/20 08:05:37;;;;;;;1.52;1.10;;;20.50;53.00;;;;;;5033701;28;20115;-60
2021/11/20 08:08:03;;;;;;;1.58;1.20;;;20.50;53.00;;;;;;5031411;28;20025;-59
2021/11/20 08:10:30;;;;;;;1.10;1.00;;;20.50;53.00;;;;;;5026087;28;20453;-60
2021/11/20 08:12:56;;;;;;;1.20;0.98;;;20.50;53.00;;;;;;5027358;28;20037;-59
2021/11/20 08:15:23;;;;;;;1.67;1.05;;;20.50;53.00;;;;;;5032642;28;20056;-60
2021/11/20 08:17:49;;;;;;;1.50;0.98;;;20.50;53.00;;;;;;5035987;28;20033;-59
2021/11/20 08:20:17;;;;;;;1.90;1.10;;;20.50;53.10;;;;;;5035614;28;20044;-60
2021/11/20 08:22:44;;;;;;;3.70;1.05;;;20.50;53.20;;;;;;5036152;28;20148;-58
2021/11/20 08:25:13;;;;;;;2.53;1.10;;;20.50;53.40;;;;;;5030869;28;20085;-60
2021/11/20 08:27:39;;;;;;;3.55;1.10;;;20.50;53.30;;;;;;5032266;28;20033;-59
2021/11/20 08:30:09;;;;;;;1.40;0.90;;;20.50;53.50;;;;;;5028960;28;20149;-57
2021/11/20 08:32:35;;;;;;;2.17;0.90;;;20.50;53.50;;;;;;5035106;28;20076;-56
2021/11/20 08:35:01;;;;;;;2.60;1.02;;;20.50;53.70;;;;;;5030584;28;20573;-56
2021/11/20 08:37:27;;;;;;;2.53;1.20;;;20.50;53.90;;;;;;5041505;28;20037;-58
2021/11/20 08:39:56;;;;;;;2.10;1.10;;;20.50;53.80;;;;;;5031287;28;20442;-59
2021/11/20 08:42:21;;;;;;;3.95;1.40;;;20.50;53.90;;;;;;5036983;28;20626;-59
2021/11/20 08:44:47;;;;;;;2.63;1.20;;;20.50;53.90;;;;;;5040751;28;20028;-59
2021/11/20 08:47:13;;;;;;;3.60;1.20;;;20.50;53.90;;;;;;5032052;28;20066;-59
2021/11/20 08:49:39;;;;;;;1.48;1.00;;;20.50;53.90;;;;;;5037868;28;20176;-59
2021/11/20 08:52:07;;;;;;;5.40;1.17;;;20.50;53.90;;;;;;5042963;28;20105;-59
2021/11/20 08:54:34;;;;;;;4.47;1.17;;;20.50;53.90;;;;;;5042109;28;20108;-60
2021/11/20 08:57:00;;;;;;;2.60;1.00;;;20.50;53.90;;;;;;5046039;28;20049;-59
2021/11/20 08:59:28;;;;;;;2.33;1.20;;;20.50;53.80;;;;;;5039979;28;20376;-59
2021/11/20 09:02:07;;;;;;;2.25;1.10;;;20.50;53.80;;;;;;5035150;28;20078;-57
2021/11/20 09:04:39;;;;;;;;;;;20.50;53.80;;;;;;5042300;28;20025;-60
2021/11/20 09:07:05;;;;;;;2.03;1.10;;;20.50;53.70;;;;;;5041449;28;19920;-59
2021/11/20 09:09:33;;;;;;;2.97;1.20;;;20.50;53.60;;;;;;5034137;28;20017;-60
2021/11/20 09:12:07;;;;;;;2.00;1.08;;;20.50;53.60;;;;;;5037551;28;20032;-60
2021/11/20 09:14:47;;;;;;;2.20;1.05;;;20.50;53.70;;;;;;5033689;28;20048;-56
2021/11/20 09:17:14;;;;;;;2.47;1.20;;;20.50;53.60;;;;;;5034221;28;20037;-57
2021/11/20 09:19:42;;;;;;;2.30;1.00;;;20.50;53.60;;;;;;5030271;28;20037;-59
2021/11/20 09:22:08;;;;;;;2.75;1.08;;;20.50;53.60;;;;;;5030288;28;20117;-59
2021/11/20 09:24:38;;;;;;;2.97;1.20;;;20.50;53.60;;;;;;5031601;28;20029;-60
2021/11/20 09:27:07;;;;;;;3.05;1.30;;;20.50;53.60;;;;;;5032575;28;20567;-60
2021/11/20 09:29:33;;;;;;;3.53;1.20;;;20.50;53.50;;;;;;5031334;28;20896;-58
2021/11/20 09:31:58;;;;;;;2.83;1.10;;;20.50;53.50;;;;;;5033227;28;20067;-58
2021/11/20 09:34:24;;;;;;;3.38;1.10;;;20.50;53.60;;;;;;5036247;28;20025;-54
2021/11/20 09:36:53;;;;;;;2.40;1.30;;;20.50;53.70;;;;;;5030770;28;20036;-60
2021/11/20 09:39:20;;;;;;;2.10;1.20;;;20.50;53.70;;;;;;5031987;28;20029;-60
2021/11/20 09:42:01;;;;;;;2.17;1.10;;;20.50;53.70;;;;;;5031364;28;20041;-59
2021/11/20 09:44:28;;;;;;;1.73;1.10;;;20.50;53.70;;;;;;5037185;28;20105;-56
2021/11/20 09:47:05;;;;;;;2.28;1.10;;;20.50;53.70;;;;;;5035948;28;20083;-59
2021/11/20 09:49:44;;;;;;;2.03;1.20;;;20.50;53.60;;;;;;5031417;28;20029;-59
2021/11/20 09:52:10;;;;;;;4.65;1.40;;;20.50;54.20;;;;;;5039241;28;20037;-59
2021/11/20 09:54:39;;;;;;;2.28;1.05;;;20.50;53.70;;;;;;5030500;28;20044;-53
2021/11/20 09:57:10;;;;;;;3.65;1.10;;;20.50;53.70;;;;;;5031840;28;20562;-59
2021/11/20 09:59:45;;;;;;;2.58;1.23;;;20.50;53.60;;;;;;5029768;28;20037;-58
2021/11/20 10:02:20;;;;;;;1.70;1.20;;;20.50;53.60;;;;;;5035171;28;20505;-59
2021/11/20 10:04:48;;;;;;;3.20;1.10;;;20.50;53.70;;;;;;5027096;28;20045;-59
2021/11/20 10:07:23;;;;;;;1.80;1.15;;;20.50;53.70;;;;;;5036900;28;20033;-59
2021/11/20 10:09:55;;;;;;;2.58;1.25;;;20.50;53.60;;;;;;5031057;28;20032;-57
2021/11/20 10:12:27;;;;;;;2.00;1.00;;;20.50;53.70;;;;;;5033540;28;20021;-60
2021/11/20 10:15:02;;;;;;;1.92;1.08;;;20.50;53.60;;;;;;5063139;28;20036;-60
2021/11/20 10:17:45;;;;;;;2.42;1.20;;;20.50;53.70;;;;;;5035781;28;20032;-60
2021/11/20 10:20:33;;;;;;;2.50;1.25;;;20.50;53.70;;;;;;5030846;28;20040;-60
2021/11/20 10:23:03;;;;;;;2.80;1.20;;;20.50;53.70;;;;;;5030625;28;20035;-59
2021/11/20 10:25:31;;;;;;;2.42;1.30;;;20.50;53.70;;;;;;5027253;28;20063;-60
2021/11/20 10:28:14;;;;;;;2.92;1.33;;;20.50;53.70;;;;;;5035661;28;20044;-57
2021/11/20 10:31:05;;;;;;;2.53;1.20;;;20.50;53.70;;;;;;5030111;28;20033;-59
2021/11/20 10:33:33;;;;;;;2.53;1.50;;;20.50;53.70;;;;;;5037531;28;20112;-53
2021/11/20 10:36:21;;;;;;;2.58;1.30;;;20.50;53.60;;;;;;5031504;28;20032;-60
2021/11/20 10:38:53;;;;;;;2.78;1.65;;;20.50;53.60;;;;;;5027230;28;20764;-60
2021/11/20 10:41:28;;;;;;;2.78;1.20;;;20.50;53.70;;;;;;5035380;28;20025;-56
2021/11/20 10:44:07;;;;;;;2.63;1.23;;;20.50;53.70;;;;;;5037072;28;20465;-58
2021/11/20 10:46:51;;;;;;;2.38;1.40;;;20.50;53.60;;;;;;5032669;28;20047;-60
2021/11/20 10:49:47;;;;;;;3.70;1.60;;;20.50;53.60;;;;;;5033799;28;20029;-60
2021/11/20 10:52:15;;;;;;;2.53;1.38;;;20.50;53.60;;;;;;5034175;28;20029;-59
2021/11/20 10:54:44;;;;;;;4.18;1.40;;;20.50;54.30;;;;;;5025993;28;20029;-59
2021/11/20 10:57:32;;;;;;;4.60;1.50;;;20.50;54.00;;;;;;5035638;28;20059;-60
2021/11/20 11:00:24;;;;;;;2.70;1.43;;;20.50;53.90;;;;;;5027225;28;20045;-59
2021/11/20 11:03:18;;;;;;;5.55;1.60;;;20.50;53.80;;;;;;5031691;28;20165;-60
2021/11/20 11:06:14;;;;;;;3.30;1.35;;;20.50;53.80;;;;;;5032325;28;20057;-51
2021/11/20 11:08:48;;;;;;;4.43;1.60;;;20.50;53.80;;;;;;5040122;28;20064;-59
2021/11/20 11:11:28;;;;;;;4.22;1.70;;;20.50;53.80;;;;;;5027769;28;20037;-59
2021/11/20 11:14:22;;;;;;;2.53;1.42;;;20.50;53.80;;;;;;5028107;28;20037;-57
2021/11/20 11:17:01;;;;;;;3.30;1.50;;;20.50;53.80;;;;;;5034097;28;20044;-57
2021/11/20 11:19:55;;;;;;;3.70;1.60;;;20.50;53.80;;;;;;5028559;28;20469;-56
2021/11/20 11:22:30;;;;;;;3.50;1.60;;;20.50;53.70;;;;;;5038631;28;20136;-55
2021/11/20 11:25:01;;;;;;;2.70;1.50;;;20.50;53.80;;;;;;5028746;28;20146;-59
2021/11/20 11:27:45;;;;;;;5.72;1.90;;;20.50;53.80;;;;;;5035626;28;20430;-59
2021/11/20 11:30:26;;;;;;;3.65;1.70;;;20.50;53.80;;;;;;5026445;28;20022;-60
2021/11/20 11:32:52;;;;;;;2.50;1.40;;;20.50;53.90;;;;;;5031457;28;20044;-57
2021/11/20 11:35:27;;;;;;;3.22;1.75;;;20.50;53.80;;;;;;5029125;28;20040;-60
2021/11/20 11:38:13;;;;;;;3.38;1.50;;;20.50;53.90;;;;;;5027836;28;20548;-59
2021/11/20 11:40:45;;;;;;;4.00;1.60;;;20.50;53.90;;;;;;5024941;28;20050;-59
2021/11/20 11:43:16;;;;;;;4.18;1.70;;;20.50;53.90;;;;;;5031568;28;20040;-59
2021/11/20 11:46:00;;;;;;;2.90;1.80;;;20.50;53.90;;;;;;5026843;28;20024;-58
2021/11/20 11:48:45;;;;;;;4.80;2.17;;;20.50;54.00;;;;;;5030320;28;20039;-59
2021/11/20 11:51:40;;;;;;;4.00;1.80;;;20.50;54.10;;;;;;5035853;28;20108;-60
2021/11/20 11:54:06;;;;;;;4.00;1.90;;;20.50;54.00;;;;;;5031364;28;20029;-57
2021/11/20 11:56:45;;;;;;;4.00;1.50;;;20.50;54.00;;;;;;5031616;28;20036;-57
2021/11/20 11:59:20;;;;;;;3.35;1.80;;;20.50;54.10;;;;;;5027247;28;20036;-58
2021/11/20 12:01:51;;;;;;;4.88;2.28;;;20.50;54.10;;;;;;5028816;28;20059;-59
2021/11/20 12:04:29;;;;;;;3.72;1.95;;;20.50;54.30;;;;;;5025411;28;20070;-58
2021/11/20 12:07:15;;;;;;;3.92;1.70;;;20.50;54.20;;;;;;5034172;28;20052;-58
2021/11/20 12:09:48;;;;;;;3.78;2.08;;;20.50;54.20;;;;;;5025512;28;20112;-57
2021/11/20 12:12:39;;;;;;;4.70;2.00;;;20.50;54.10;;;;;;5034984;28;20029;-59
2021/11/20 12:15:12;;;;;;;3.33;2.08;;;20.50;54.20;;;;;;5036071;28;20037;-59
2021/11/20 12:17:44;;;;;;;3.63;1.88;;;20.50;54.20;;;;;;5030234;28;20029;-60
2021/11/20 12:20:12;;;;;;;2.88;1.88;;;20.50;54.20;;;;;;5027505;28;21882;-60
2021/11/20 12:22:58;;;;;;;5.72;2.25;;;20.50;54.20;;;;;;5032336;28;20048;-59
2021/11/20 12:25:48;;;;;;;4.03;1.98;;;20.50;54.20;;;;;;5027862;28;20388;-59
2021/11/20 12:28:35;;;;;;;4.13;2.00;;;20.50;54.20;;;;;;5025467;28;22639;-57
2021/11/20 12:31:24;;;;;;;4.47;2.03;;;20.50;54.20;;;;;;5034693;28;21739;-58
2021/11/20 12:34:05;;;;;;;4.65;2.30;;;20.50;54.30;;;;;;5032419;28;20713;-58
2021/11/20 12:36:49;;;;;;;3.70;1.90;;;20.50;54.20;;;;;;5029309;28;20087;-59
2021/11/20 12:39:38;;;;;;;3.70;1.88;;;20.50;54.30;;;;;;5025031;28;20036;-59
2021/11/20 12:42:18;;;;;;;4.55;2.00;;;20.50;54.40;;;;;;5027596;28;20029;-57
2021/11/20 12:45:15;;;;;;;4.07;2.03;;;20.50;54.30;;;;;;5045502;28;20428;-58
2021/11/20 12:48:07;;;;;;;4.72;2.10;;;20.50;54.40;;;;;;5026933;28;20037;-60
2021/11/20 12:50:56;;;;;;;3.97;2.03;;;20.50;54.40;;;;;;5025722;28;20467;-60
2021/11/20 12:53:29;;;;;;;5.25;2.38;;;20.50;54.40;;;;;;5032615;28;20111;-58
2021/11/20 12:56:07;;;;;;;3.40;2.10;;;20.50;54.40;;;;;;5026721;28;20072;-60
2021/11/20 12:58:41;;;;;;;3.20;2.15;;;20.50;54.50;;;;;;5025118;28;20090;-58
2021/11/20 13:01:11;;;;;;;3.70;2.08;;;20.50;54.50;;;;;;5033263;28;20155;-61
2021/11/20 13:03:41;;;;;;;5.60;2.63;;;20.50;54.40;;;;;;5031886;28;20543;-60
2021/11/20 13:06:27;;;;;;;3.90;2.10;;;20.50;54.50;;;;;;5035401;28;20122;-61
2021/11/20 13:08:58;;;;;;;4.32;2.30;;;20.40;54.40;;;;;;5030765;28;20075;-60